createdAt,value
2022-12-28T00:00:23.566Z,83.89
2022-12-28T00:03:15.587Z,83.96
2022-12-28T00:05:44.201Z,84.08
2022-12-28T00:08:12.434Z,84.02
2022-12-28T00:11:07.688Z,84.18
2022-12-28T00:13:31.502Z,84.22
2022-12-28T00:16:28.168Z,84.34
2022-12-28T00:18:59.513Z,84.38
2022-12-28T00:21:29.857Z,84.44
2022-12-28T00:24:01.361Z,84.39
2022-12-28T00:26:33.959Z,84.46
2022-12-28T00:29:05.997Z,84.52
2022-12-28T00:31:38.254Z,84.54
2022-12-28T00:34:06.665Z,84.50
2022-12-28T00:37:08.528Z,84.66
2022-12-28T00:39:24.184Z,84.68
2022-12-28T00:41:52.695Z,84.70
2022-12-28T00:44:23.889Z,84.74
2022-12-28T00:46:55.884Z,84.78
2022-12-28T00:49:24.295Z,84.81
2022-12-28T00:51:52.843Z,84.81
2022-12-28T00:54:21.301Z,84.74
2022-12-28T00:56:50.064Z,84.79
2022-12-28T00:59:18.584Z,84.75
2022-12-28T01:01:46.911Z,84.70
2022-12-28T01:04:15.430Z,84.69
2022-12-28T01:07:00.642Z,84.68
2022-12-28T01:09:29.146Z,84.63
2022-12-28T01:11:57.610Z,84.70
2022-12-28T01:14:26.326Z,84.70
2022-12-28T01:16:55.029Z,84.77
2022-12-28T01:19:25.549Z,84.91
2022-12-28T01:21:54.145Z,84.98
2022-12-28T01:24:22.875Z,85.01
2022-12-28T01:26:51.451Z,85.03
2022-12-28T01:29:20.086Z,85.11
2022-12-28T01:31:48.847Z,85.23
2022-12-28T01:34:17.860Z,85.30
2022-12-28T01:36:46.302Z,85.38
2022-12-28T01:39:15.065Z,85.40
2022-12-28T01:41:46.960Z,85.42
2022-12-28T01:44:15.121Z,85.49
2022-12-28T01:47:01.489Z,85.50
2022-12-28T01:49:49.085Z,85.59
2022-12-28T01:52:50.422Z,85.60
2022-12-28T01:55:51.164Z,85.70
2022-12-28T01:58:34.246Z,85.80
2022-12-28T02:01:03.303Z,85.94
2022-12-28T02:03:34.904Z,86.07
2022-12-28T02:06:11.742Z,86.18
2022-12-28T02:08:56.522Z,86.14
2022-12-28T02:11:29.599Z,86.21
2022-12-28T02:14:00.344Z,86.20
2022-12-28T02:16:28.585Z,86.35
2022-12-28T02:18:57.602Z,86.40
2022-12-28T02:21:47.186Z,86.40
2022-12-28T02:25:12.521Z,86.37
2022-12-28T02:28:36.749Z,86.29
2022-12-28T02:31:16.140Z,86.32
2022-12-28T02:34:13.399Z,86.39
2022-12-28T02:36:54.499Z,86.56
2022-12-28T02:39:40.405Z,86.72
2022-12-28T02:42:10.220Z,86.80
2022-12-28T02:45:08.793Z,86.80
2022-12-28T02:47:59.679Z,86.97
2022-12-28T02:50:47.460Z,86.97
2022-12-28T02:53:42.923Z,87.06
2022-12-28T02:57:15.441Z,87.15
2022-12-28T03:00:08.876Z,87.07
2022-12-28T03:03:13.447Z,86.98
2022-12-28T03:06:30.088Z,87.01
2022-12-28T03:09:29.301Z,87.04
2022-12-28T03:12:32.777Z,86.97
2022-12-28T03:15:13.396Z,86.95
2022-12-28T03:18:03.304Z,86.97
2022-12-28T03:20:53.040Z,86.97
2022-12-28T03:23:43.103Z,87.00
2022-12-28T03:26:32.665Z,86.97
2022-12-28T03:29:26.315Z,86.90
2022-12-28T03:31:57.923Z,86.84
2022-12-28T03:34:26.520Z,86.88
2022-12-28T03:37:43.125Z,86.98
2022-12-28T03:40:42.280Z,86.91
2022-12-28T03:43:42.751Z,86.78
2022-12-28T03:46:29.666Z,86.73
2022-12-28T03:49:05.498Z,86.66
2022-12-28T03:51:35.143Z,86.57
2022-12-28T03:54:03.820Z,86.54
2022-12-28T03:56:31.864Z,86.46
2022-12-28T03:59:02.825Z,86.39
2022-12-28T04:01:31.249Z,86.38
2022-12-28T04:03:59.305Z,86.30
2022-12-28T04:06:30.243Z,86.29
2022-12-28T04:08:58.527Z,86.21
2022-12-28T04:11:30.064Z,86.22
2022-12-28T04:13:58.322Z,86.23
2022-12-28T04:16:26.386Z,86.17
2022-12-28T04:18:57.413Z,86.18
2022-12-28T04:21:25.647Z,86.10
2022-12-28T04:23:54.745Z,86.07
2022-12-28T04:26:22.845Z,86.09
2022-12-28T04:28:51.219Z,86.06
2022-12-28T04:31:19.607Z,86.05
2022-12-28T04:33:47.705Z,86.06
2022-12-28T04:36:18.655Z,86.08
2022-12-28T04:38:47.326Z,86.13
2022-12-28T04:41:15.609Z,86.22
2022-12-28T04:43:43.922Z,86.30
2022-12-28T04:46:15.348Z,86.37
2022-12-28T04:48:43.899Z,86.42
2022-12-28T04:51:19.762Z,86.43
2022-12-28T04:53:49.041Z,86.44
2022-12-28T04:56:20.683Z,86.50
2022-12-28T04:58:57.563Z,86.60
2022-12-28T05:01:29.886Z,86.70
2022-12-28T05:03:59.643Z,86.64
2022-12-28T05:07:42.937Z,86.63
2022-12-28T05:16:19.626Z,86.71
2022-12-28T05:18:49.304Z,86.83
2022-12-28T05:21:24.193Z,86.82
2022-12-28T05:23:53.644Z,86.84
2022-12-28T05:26:26.625Z,86.90
2022-12-28T05:28:56.779Z,86.95
2022-12-28T05:31:25.539Z,86.98
2022-12-28T05:33:54.987Z,86.91
2022-12-28T05:36:29.373Z,86.90
2022-12-28T05:38:57.462Z,86.96
2022-12-28T05:41:31.243Z,86.93
2022-12-28T05:44:06.947Z,86.99
2022-12-28T05:46:38.148Z,86.95
2022-12-28T05:49:09.661Z,86.90
2022-12-28T05:51:39.737Z,86.84
2022-12-28T05:54:11.265Z,86.80
2022-12-28T05:56:43.682Z,86.78
2022-12-28T05:59:13.589Z,86.75
2022-12-28T06:01:47.688Z,86.65
2022-12-28T06:04:19.534Z,86.56
2022-12-28T06:06:50.103Z,86.45
2022-12-28T06:09:21.265Z,86.38
2022-12-28T06:11:49.440Z,86.33
2022-12-28T06:14:17.702Z,86.22
2022-12-28T06:16:46.169Z,86.17
2022-12-28T06:19:15.467Z,86.11
2022-12-28T06:21:44.486Z,86.09
2022-12-28T06:24:14.211Z,86.10
2022-12-28T06:26:45.629Z,86.16
2022-12-28T06:29:13.658Z,86.16
2022-12-28T06:31:51.312Z,86.18
2022-12-28T06:34:19.059Z,86.13
2022-12-28T06:36:46.710Z,86.07
2022-12-28T06:39:15.103Z,86.01
2022-12-28T06:41:43.385Z,85.88
2022-12-28T06:44:13.785Z,85.68
2022-12-28T06:46:41.903Z,85.55
2022-12-28T06:49:09.430Z,85.50
2022-12-28T06:51:41.037Z,85.42
2022-12-28T06:54:10.102Z,85.39
2022-12-28T06:56:38.643Z,85.31
2022-12-28T06:59:06.649Z,85.27
2022-12-28T07:01:38.472Z,85.17
2022-12-28T07:04:09.589Z,85.10
2022-12-28T07:06:43.901Z,85.03
2022-12-28T07:09:15.215Z,85.00
2022-12-28T07:11:44.705Z,84.93
2022-12-28T07:14:12.590Z,84.88
2022-12-28T07:19:08.483Z,84.80
2022-12-28T07:21:39.452Z,84.80
2022-12-28T07:24:08.547Z,84.80
2022-12-28T07:26:38.266Z,84.80
2022-12-28T07:29:08.136Z,84.80
2022-12-28T07:31:44.932Z,84.75
2022-12-28T07:34:16.650Z,84.71
2022-12-28T07:36:44.493Z,84.64
2022-12-28T07:39:12.273Z,84.60
2022-12-28T07:41:40.014Z,84.59
2022-12-28T07:44:08.095Z,84.56
2022-12-28T07:46:37.703Z,84.35
2022-12-28T07:49:06.215Z,84.21
2022-12-28T07:51:37.084Z,84.11
2022-12-28T07:54:05.824Z,84.15
2022-12-28T07:59:04.526Z,83.84
2022-12-28T08:01:35.439Z,83.76
2022-12-28T08:04:08.807Z,83.76
2022-12-28T08:06:40.393Z,83.61
2022-12-28T08:09:11.894Z,83.55
2022-12-28T08:11:45.587Z,83.38
2022-12-28T08:14:13.727Z,83.23
2022-12-28T08:16:44.005Z,82.99
2022-12-28T08:19:13.519Z,82.74
2022-12-28T08:21:44.673Z,82.60
2022-12-28T08:24:19.042Z,82.52
2022-12-28T08:26:48.643Z,82.21
2022-12-28T08:29:21.366Z,82.09
2022-12-28T08:31:50.057Z,81.99
2022-12-28T08:34:26.539Z,81.91
2022-12-28T08:36:56.164Z,81.52
2022-12-28T08:39:23.751Z,81.28
2022-12-28T08:41:51.284Z,80.69
2022-12-28T08:44:18.952Z,80.03
2022-12-28T08:46:46.657Z,79.26
2022-12-28T08:49:15.198Z,79.09
2022-12-28T08:51:43.370Z,78.80
2022-12-28T08:54:13.671Z,78.52
2022-12-28T08:56:44.453Z,78.05
2022-12-28T08:59:17.133Z,78.23
2022-12-28T09:01:46.629Z,78.00
2022-12-28T09:04:21.454Z,77.86
2022-12-28T09:06:49.613Z,77.78
2022-12-28T09:09:19.408Z,77.75
2022-12-28T09:11:48.161Z,77.62
2022-12-28T09:14:23.353Z,77.70
2022-12-28T09:16:54.924Z,77.74
2022-12-28T09:19:23.464Z,77.49
2022-12-28T09:21:52.918Z,77.29
2022-12-28T09:24:21.715Z,77.47
2022-12-28T09:26:52.327Z,77.40
2022-12-28T09:29:20.312Z,77.45
2022-12-28T09:31:49.883Z,77.42
2022-12-28T09:37:08.438Z,77.22
2022-12-28T09:39:36.331Z,77.47
2022-12-28T09:42:25.209Z,77.20
2022-12-28T09:45:10.679Z,76.38
2022-12-28T09:47:50.517Z,76.26
2022-12-28T09:50:18.709Z,74.91
2022-12-28T09:53:05.195Z,74.95
2022-12-28T09:55:39.787Z,74.83
2022-12-28T09:58:16.327Z,75.13
2022-12-28T10:00:57.582Z,74.82
2022-12-28T10:03:33.144Z,74.68
2022-12-28T10:06:02.628Z,74.47
2022-12-28T10:08:31.014Z,74.90
2022-12-28T10:11:02.148Z,74.96
2022-12-28T10:13:54.535Z,74.86
2022-12-28T10:16:26.404Z,74.59
2022-12-28T10:18:54.847Z,74.54
2022-12-28T10:21:32.506Z,74.35
2022-12-28T10:26:52.255Z,74.35
2022-12-28T10:29:23.570Z,74.29
2022-12-28T10:32:09.156Z,73.94
2022-12-28T10:34:44.928Z,73.96
2022-12-28T10:37:18.617Z,74.06
2022-12-28T10:40:15.072Z,74.16
2022-12-28T10:42:46.238Z,74.00
2022-12-28T10:45:27.529Z,74.44
2022-12-28T10:47:57.121Z,74.55
2022-12-28T10:50:46.271Z,74.66
2022-12-28T10:53:43.348Z,74.99
2022-12-28T10:56:14.044Z,75.03
2022-12-28T10:58:45.091Z,74.62
2022-12-28T11:01:12.849Z,74.18
2022-12-28T11:03:57.608Z,73.80
2022-12-28T11:06:35.358Z,73.61
2022-12-28T11:09:29.391Z,73.49
2022-12-28T11:12:22.353Z,72.93
2022-12-28T11:14:52.147Z,72.35
2022-12-28T11:17:28.014Z,72.33
2022-12-28T11:20:19.530Z,72.65
2022-12-28T11:22:47.865Z,72.07
2022-12-28T11:25:18.670Z,72.59
2022-12-28T11:27:48.286Z,72.04
2022-12-28T11:30:18.889Z,71.83
2022-12-28T11:33:00.884Z,71.77
2022-12-28T11:35:38.689Z,71.45
2022-12-28T11:38:11.384Z,71.84
2022-12-28T11:40:44.867Z,72.13
2022-12-28T11:43:32.947Z,71.55
2022-12-28T11:46:03.480Z,72.09
2022-12-28T11:48:43.183Z,71.99
2022-12-28T11:51:32.463Z,71.90
2022-12-28T11:54:39.848Z,71.98
2022-12-28T11:57:08.531Z,72.01
2022-12-28T11:59:36.964Z,71.73
2022-12-28T12:02:27.252Z,71.61
2022-12-28T12:04:55.275Z,71.53
2022-12-28T12:07:31.752Z,71.41
2022-12-28T12:10:28.182Z,71.33
2022-12-28T12:12:56.257Z,71.85
2022-12-28T12:15:44.048Z,71.55
2022-12-28T12:18:33.777Z,71.80
2022-12-28T12:21:13.541Z,71.72
2022-12-28T12:23:53.807Z,71.53
2022-12-28T12:26:29.533Z,71.71
2022-12-28T12:29:12.149Z,71.44
2022-12-28T12:32:07.311Z,71.84
2022-12-28T12:34:54.689Z,71.75
2022-12-28T12:37:54.761Z,71.99
2022-12-28T12:40:43.845Z,72.35
2022-12-28T12:43:36.611Z,72.53
2022-12-28T12:46:29.320Z,72.65
2022-12-28T12:49:25.589Z,72.81
2022-12-28T12:52:06.067Z,72.89
2022-12-28T12:55:10.886Z,72.91
2022-12-28T12:57:52.985Z,72.72
2022-12-28T13:00:26.391Z,72.66
2022-12-28T13:03:43.618Z,72.66
2022-12-28T13:06:16.188Z,72.74
2022-12-28T13:09:00.430Z,73.22
2022-12-28T13:11:34.838Z,72.95
2022-12-28T13:14:03.349Z,73.08
2022-12-28T13:16:32.585Z,72.83
2022-12-28T13:19:05.567Z,72.89
2022-12-28T13:21:48.737Z,72.95
2022-12-28T13:24:40.072Z,73.00
2022-12-28T13:27:20.251Z,73.15
2022-12-28T13:29:54.861Z,73.35
2022-12-28T13:32:38.339Z,72.99
2022-12-28T13:35:20.227Z,72.77
2022-12-28T13:38:09.747Z,73.00
2022-12-28T13:40:40.255Z,73.08
2022-12-28T13:43:44.508Z,73.22
2022-12-28T13:46:18.170Z,73.14
2022-12-28T13:48:52.432Z,72.98
2022-12-28T13:51:21.826Z,73.14
2022-12-28T13:53:55.600Z,73.32
2022-12-28T13:56:24.848Z,73.43
2022-12-28T13:59:04.529Z,73.46
2022-12-28T14:01:40.749Z,73.53
2022-12-28T14:04:51.838Z,73.61
2022-12-28T14:07:15.409Z,73.79
2022-12-28T14:09:45.449Z,74.07
2022-12-28T14:12:15.391Z,74.15
2022-12-28T14:14:45.253Z,74.05
2022-12-28T14:17:13.492Z,74.24
2022-12-28T14:19:42.915Z,74.44
2022-12-28T14:22:36.931Z,74.58
2022-12-28T14:25:17.964Z,74.72
2022-12-28T14:28:00.709Z,74.71
2022-12-28T14:30:41.772Z,74.77
2022-12-28T14:33:24.685Z,74.84
2022-12-28T14:36:00.757Z,75.06
2022-12-28T14:38:35.401Z,75.04
2022-12-28T14:41:04.501Z,75.10
2022-12-28T14:43:35.890Z,75.26
2022-12-28T14:46:27.760Z,75.38
2022-12-28T14:48:55.612Z,75.47
2022-12-28T14:51:31.878Z,75.54
2022-12-28T14:54:22.367Z,75.66
2022-12-28T14:57:03.756Z,75.70
2022-12-28T14:59:42.895Z,75.58
2022-12-28T15:02:41.241Z,75.71
2022-12-28T15:05:44.885Z,75.93
2022-12-28T15:08:13.255Z,76.17
2022-12-28T15:10:52.297Z,76.33
2022-12-28T15:13:21.930Z,76.45
2022-12-28T15:15:55.466Z,76.50
2022-12-28T15:18:24.288Z,76.52
2022-12-28T15:20:52.149Z,76.66
2022-12-28T15:23:20.778Z,76.57
2022-12-28T15:25:48.911Z,76.55
2022-12-28T15:28:17.172Z,76.50
2022-12-28T15:30:45.253Z,76.56
2022-12-28T15:33:13.232Z,76.49
2022-12-28T15:35:41.099Z,76.50
2022-12-28T15:38:08.849Z,76.61
2022-12-28T15:40:40.019Z,76.76
2022-12-28T15:43:07.547Z,76.80
2022-12-28T15:45:35.428Z,76.84
2022-12-28T15:48:03.099Z,76.73
2022-12-28T15:50:32.127Z,76.73
2022-12-28T15:53:00.767Z,76.88
2022-12-28T15:55:28.534Z,76.90
2022-12-28T15:57:56.387Z,76.77
2022-12-28T16:00:24.279Z,76.73
2022-12-28T16:02:52.048Z,76.73
2022-12-28T16:05:19.789Z,76.71
2022-12-28T16:07:48.391Z,76.86
2022-12-28T16:10:15.947Z,76.87
2022-12-28T16:12:43.509Z,76.89
2022-12-28T16:15:11.686Z,76.89
2022-12-28T16:17:48.626Z,76.90
2022-12-28T16:20:19.691Z,77.02
2022-12-28T16:22:47.481Z,77.11
2022-12-28T16:25:15.436Z,77.18
2022-12-28T16:27:43.196Z,77.07
2022-12-28T16:30:12.162Z,77.03
2022-12-28T16:32:40.048Z,77.01
2022-12-28T16:35:08.779Z,77.02
2022-12-28T16:37:36.916Z,77.19
2022-12-28T16:40:05.327Z,77.03
2022-12-28T16:42:32.954Z,77.21
2022-12-28T16:45:01.010Z,77.35
2022-12-28T16:47:29.786Z,77.36
2022-12-28T16:49:57.587Z,77.38
2022-12-28T16:52:25.358Z,77.26
2022-12-28T16:54:52.917Z,77.07
2022-12-28T16:57:20.767Z,77.08
2022-12-28T16:59:49.988Z,77.05
2022-12-28T17:02:17.800Z,77.28
2022-12-28T17:04:45.730Z,77.41
2022-12-28T17:07:13.932Z,77.33
2022-12-28T17:09:46.683Z,77.22
2022-12-28T17:12:18.118Z,77.15
2022-12-28T17:14:46.287Z,77.25
2022-12-28T17:17:14.055Z,77.45
2022-12-28T17:19:42.029Z,77.49
2022-12-28T17:22:10.090Z,77.40
2022-12-28T17:24:37.968Z,77.43
2022-12-28T17:27:09.112Z,77.59
2022-12-28T17:29:39.853Z,77.58
2022-12-28T17:32:08.040Z,77.62
2022-12-28T17:34:36.812Z,77.74
2022-12-28T17:37:04.907Z,77.66
2022-12-28T17:39:39.684Z,77.66
2022-12-28T17:42:08.910Z,77.62
2022-12-28T17:44:36.587Z,77.53
2022-12-28T17:47:05.048Z,77.46
2022-12-28T17:49:32.931Z,77.45
2022-12-28T17:52:00.574Z,77.39
2022-12-28T17:54:28.234Z,77.28
2022-12-28T17:56:55.913Z,77.24
2022-12-28T17:59:23.875Z,77.07
2022-12-28T18:01:52.109Z,76.99
2022-12-28T18:04:19.706Z,77.01
2022-12-28T18:06:47.686Z,76.92
2022-12-28T18:09:15.950Z,76.98
2022-12-28T18:11:43.608Z,76.65
2022-12-28T18:14:12.872Z,76.57
2022-12-28T18:16:41.182Z,76.48
2022-12-28T18:19:08.949Z,76.57
2022-12-28T18:21:37.748Z,76.36
2022-12-28T18:24:06.738Z,76.32
2022-12-28T18:26:34.287Z,76.50
2022-12-28T18:29:01.850Z,76.70
2022-12-28T18:31:29.920Z,76.70
2022-12-28T18:33:58.407Z,76.30
2022-12-28T18:36:26.067Z,76.23
2022-12-28T18:38:54.255Z,75.84
2022-12-28T18:41:22.772Z,75.65
2022-12-28T18:43:51.344Z,75.82
2022-12-28T18:46:19.821Z,75.73
2022-12-28T18:48:47.461Z,75.58
2022-12-28T18:51:18.146Z,75.40
2022-12-28T18:53:46.915Z,75.58
2022-12-28T18:56:21.115Z,75.36
2022-12-28T18:58:55.856Z,75.33
2022-12-28T19:04:17.432Z,75.68
2022-12-28T19:06:45.428Z,75.82
2022-12-28T19:09:13.625Z,76.00
2022-12-28T19:11:41.824Z,75.96
2022-12-28T19:14:12.446Z,75.81
2022-12-28T19:16:41.354Z,75.86
2022-12-28T19:19:10.056Z,75.98
2022-12-28T19:21:42.612Z,75.91
2022-12-28T19:24:16.104Z,75.99
2022-12-28T19:26:47.245Z,75.93
2022-12-28T19:29:16.832Z,75.86
2022-12-28T19:31:45.740Z,76.04
2022-12-28T19:34:15.787Z,76.05
2022-12-28T19:36:44.138Z,76.02
2022-12-28T19:39:12.636Z,76.11
2022-12-28T19:41:41.737Z,76.04
2022-12-28T19:44:09.458Z,76.11
2022-12-28T19:46:38.260Z,76.04
2022-12-28T19:49:06.009Z,75.91
2022-12-28T19:51:34.408Z,75.85
2022-12-28T19:54:02.557Z,75.81
2022-12-28T19:56:31.594Z,75.73
2022-12-28T19:59:06.108Z,75.72
2022-12-28T20:01:37.566Z,75.67
2022-12-28T20:04:13.498Z,75.69
2022-12-28T20:06:45.715Z,75.76
2022-12-28T20:09:14.863Z,75.69
2022-12-28T20:11:44.488Z,75.76
2022-12-28T20:14:19.135Z,75.75
2022-12-28T20:16:51.152Z,75.86
2022-12-28T20:19:18.908Z,75.83
2022-12-28T20:21:46.577Z,75.90
2022-12-28T20:24:14.681Z,75.84
2022-12-28T20:26:42.408Z,75.80
2022-12-28T20:29:10.473Z,75.82
2022-12-28T20:31:38.132Z,75.73
2022-12-28T20:34:05.721Z,75.68
2022-12-28T20:36:34.326Z,75.49
2022-12-28T20:39:03.196Z,75.63
2022-12-28T20:41:52.245Z,75.79
2022-12-28T20:44:31.987Z,75.78
2022-12-28T20:47:04.317Z,75.69
2022-12-28T20:49:32.235Z,75.90
2022-12-28T20:52:01.392Z,75.79
2022-12-28T20:54:30.108Z,75.84
2022-12-28T20:56:58.949Z,75.94
2022-12-28T20:59:28.899Z,76.03
2022-12-28T21:01:57.601Z,76.09
2022-12-28T21:04:26.328Z,76.05
2022-12-28T21:06:54.781Z,75.94
2022-12-28T21:09:24.196Z,75.91
2022-12-28T21:11:52.761Z,75.93
2022-12-28T21:14:20.874Z,75.83
2022-12-28T21:16:49.904Z,75.72
2022-12-28T21:19:17.605Z,75.59
2022-12-28T21:21:47.067Z,75.76
2022-12-28T21:24:15.268Z,75.92
2022-12-28T21:26:43.237Z,76.02
2022-12-28T21:29:10.892Z,76.09
2022-12-28T21:31:39.650Z,76.10
2022-12-28T21:34:07.979Z,76.08
2022-12-28T21:36:35.836Z,76.13
2022-12-28T21:39:04.114Z,76.25
2022-12-28T21:41:50.907Z,76.39
2022-12-28T21:44:24.089Z,76.48
2022-12-28T21:46:53.851Z,76.46
2022-12-28T21:49:22.608Z,76.37
2022-12-28T21:51:51.820Z,76.25
2022-12-28T21:54:22.537Z,76.16
2022-12-28T21:56:54.548Z,75.96
2022-12-28T21:59:24.927Z,75.73
2022-12-28T22:02:12.829Z,75.54
2022-12-28T22:05:07.292Z,75.49
2022-12-28T22:07:35.023Z,75.56
2022-12-28T22:10:21.630Z,75.63
2022-12-28T22:12:49.399Z,75.43
2022-12-28T22:15:39.788Z,75.48
2022-12-28T22:21:08.749Z,75.27
2022-12-28T22:23:36.469Z,75.42
2022-12-28T22:26:04.135Z,75.11
2022-12-28T22:28:31.905Z,74.84
2022-12-28T22:31:04.929Z,74.71
2022-12-28T22:33:32.749Z,74.54
2022-12-28T22:36:17.081Z,74.35
2022-12-28T22:38:45.590Z,74.19
2022-12-28T22:41:13.349Z,74.17
2022-12-28T22:43:41.941Z,74.35
2022-12-28T22:46:12.066Z,74.31
2022-12-28T22:48:39.934Z,74.16
2022-12-28T22:51:15.588Z,74.20
2022-12-28T22:53:43.443Z,73.94
2022-12-28T22:56:19.637Z,74.23
2022-12-28T22:58:48.285Z,74.04
